createdAt,value
2022-10-08T00:01:29.814Z,10.93
2022-10-08T00:03:57.885Z,11.27
2022-10-08T00:06:30.148Z,9.32
2022-10-08T00:09:02.404Z,11.45
2022-10-08T00:11:35.097Z,8.85
2022-10-08T00:14:03.852Z,8.30
2022-10-08T00:16:36.410Z,10.07
2022-10-08T00:19:12.545Z,10.65
2022-10-08T00:21:44.042Z,9.10
2022-10-08T00:24:17.917Z,7.75
2022-10-08T00:26:46.741Z,8.80
2022-10-08T00:29:18.185Z,10.02
2022-10-08T00:31:49.253Z,10.02
2022-10-08T00:34:22.242Z,9.50
2022-10-08T00:36:55.594Z,12.77
2022-10-08T00:39:25.250Z,15.45
2022-10-08T00:41:55.921Z,8.95
2022-10-08T00:44:51.370Z,7.97
2022-10-08T00:47:34.081Z,8.98
2022-10-08T00:50:29.862Z,9.93
2022-10-08T00:53:08.243Z,9.75
2022-10-08T00:55:43.121Z,10.32
2022-10-08T00:58:21.513Z,10.73
2022-10-08T01:00:50.356Z,9.00
2022-10-08T01:03:18.291Z,10.05
2022-10-08T01:06:30.275Z,9.57
2022-10-08T01:09:16.482Z,8.82
2022-10-08T01:12:18.169Z,9.52
2022-10-08T01:15:06.894Z,9.77
2022-10-08T01:17:48.860Z,7.45
2022-10-08T01:21:02.707Z,6.50
2022-10-08T01:24:07.179Z,7.30
2022-10-08T01:29:44.815Z,9.43
2022-10-08T01:32:22.309Z,7.85
2022-10-08T01:35:16.847Z,8.48
2022-10-08T01:37:46.304Z,8.85
2022-10-08T01:40:27.361Z,8.25
2022-10-08T01:42:59.141Z,9.60
2022-10-08T01:45:43.912Z,10.73
2022-10-08T01:48:20.859Z,11.40
2022-10-08T01:50:48.551Z,12.00
2022-10-08T01:53:19.563Z,9.20
2022-10-08T01:55:53.184Z,9.27
2022-10-08T02:01:18.677Z,10.90
2022-10-08T02:06:39.333Z,7.85
2022-10-08T02:09:07.162Z,10.52
2022-10-08T02:11:35.963Z,8.68
2022-10-08T02:14:05.810Z,8.77
2022-10-08T02:16:36.805Z,12.63
2022-10-08T02:19:44.405Z,11.30
2022-10-08T02:22:18.638Z,8.15
2022-10-08T02:25:16.855Z,8.90
2022-10-08T02:28:33.046Z,7.40
2022-10-08T02:31:38.171Z,8.05
2022-10-08T02:34:22.172Z,13.25
2022-10-08T02:39:33.929Z,9.55
2022-10-08T02:42:11.235Z,9.63
2022-10-08T02:45:00.461Z,8.68
2022-10-08T02:47:33.725Z,9.73
2022-10-08T02:50:09.001Z,7.95
2022-10-08T02:52:41.985Z,10.98
2022-10-08T02:55:29.892Z,8.65
2022-10-08T02:58:06.404Z,9.15
2022-10-08T03:00:50.500Z,8.45
2022-10-08T03:03:35.226Z,9.98
2022-10-08T03:06:08.585Z,7.93
2022-10-08T03:08:42.642Z,11.95
2022-10-08T03:11:12.130Z,8.57
2022-10-08T03:13:45.506Z,7.35
2022-10-08T03:16:18.228Z,9.95
2022-10-08T03:18:46.898Z,13.57
2022-10-08T03:21:16.091Z,10.80
2022-10-08T03:23:44.031Z,9.60
2022-10-08T03:26:11.845Z,9.82
2022-10-08T03:28:39.654Z,8.98
2022-10-08T03:31:07.739Z,8.48
2022-10-08T03:33:36.150Z,11.50
2022-10-08T03:36:04.361Z,13.23
2022-10-08T03:38:34.644Z,11.02
2022-10-08T03:41:02.808Z,18.15
2022-10-08T03:43:34.519Z,12.02
2022-10-08T03:46:03.390Z,12.65
2022-10-08T03:48:31.819Z,12.82
2022-10-08T03:51:03.241Z,12.73
2022-10-08T03:53:37.372Z,9.52
2022-10-08T03:56:10.877Z,11.90
2022-10-08T03:58:38.794Z,12.05
2022-10-08T04:01:17.496Z,9.98
2022-10-08T04:03:45.519Z,13.93
2022-10-08T04:06:14.339Z,16.50
2022-10-08T04:08:42.510Z,12.25
2022-10-08T04:11:15.372Z,16.10
2022-10-08T04:13:44.032Z,12.52
2022-10-08T04:16:18.025Z,13.10
2022-10-08T04:18:47.433Z,14.20
2022-10-08T04:21:18.429Z,14.52
2022-10-08T04:23:49.312Z,11.38
2022-10-08T04:26:17.671Z,12.70
2022-10-08T04:28:46.314Z,13.52
2022-10-08T04:31:18.885Z,13.00
2022-10-08T04:33:47.655Z,15.30
2022-10-08T04:36:22.275Z,12.98
2022-10-08T04:38:51.211Z,14.10
2022-10-08T04:41:22.449Z,16.00
2022-10-08T04:43:51.735Z,17.45
2022-10-08T04:46:22.194Z,13.70
2022-10-08T04:48:55.181Z,14.00
2022-10-08T04:51:25.632Z,15.95
2022-10-08T04:53:55.216Z,15.10
2022-10-08T04:56:27.155Z,17.00
2022-10-08T04:58:56.129Z,17.17
2022-10-08T05:01:25.702Z,15.15
2022-10-08T05:03:56.960Z,15.75
2022-10-08T05:06:28.662Z,15.43
2022-10-08T05:08:59.798Z,15.52
2022-10-08T05:11:29.180Z,16.73
2022-10-08T05:13:58.808Z,22.10
2022-10-08T05:16:27.560Z,15.07
2022-10-08T05:18:56.538Z,15.13
2022-10-08T05:21:29.915Z,16.48
2022-10-08T05:24:08.269Z,12.88
2022-10-08T05:29:30.218Z,15.25
2022-10-08T05:31:58.168Z,11.85
2022-10-08T05:34:26.211Z,13.35
2022-10-08T05:36:54.407Z,12.73
2022-10-08T05:39:22.181Z,15.23
2022-10-08T05:41:50.029Z,13.75
2022-10-08T05:44:17.838Z,16.65
2022-10-08T05:46:45.744Z,15.98
2022-10-08T05:49:20.754Z,19.83
2022-10-08T05:51:50.006Z,15.77
2022-10-08T05:54:19.034Z,14.93
2022-10-08T05:56:46.862Z,24.52
2022-10-08T05:59:22.026Z,15.68
2022-10-08T06:01:51.819Z,18.65
2022-10-08T06:04:19.807Z,13.52
2022-10-08T06:06:48.072Z,15.43
2022-10-08T06:09:19.271Z,13.05
2022-10-08T06:11:48.136Z,13.57
2022-10-08T06:14:17.160Z,13.85
2022-10-08T06:16:45.103Z,12.43
2022-10-08T06:19:13.426Z,13.30
2022-10-08T06:21:41.547Z,13.52
2022-10-08T06:24:12.300Z,12.73
2022-10-08T06:26:42.709Z,14.35
2022-10-08T06:29:17.751Z,16.48
2022-10-08T06:31:46.762Z,13.10
2022-10-08T06:34:15.671Z,15.15
2022-10-08T06:36:44.452Z,15.02
2022-10-08T06:39:15.037Z,12.20
2022-10-08T06:41:43.234Z,14.23
2022-10-08T06:44:13.944Z,22.15
2022-10-08T06:46:43.164Z,14.55
2022-10-08T06:49:11.758Z,12.38
2022-10-08T06:51:39.619Z,13.68
2022-10-08T06:54:08.636Z,13.82
2022-10-08T06:56:39.068Z,14.07
2022-10-08T06:59:07.748Z,12.27
2022-10-08T07:01:36.138Z,12.23
2022-10-08T07:04:05.707Z,12.27
2022-10-08T07:06:34.350Z,9.98
2022-10-08T07:09:03.094Z,9.48
2022-10-08T07:11:32.433Z,11.95
2022-10-08T07:14:01.306Z,10.00
2022-10-08T07:16:29.550Z,10.00
2022-10-08T07:19:00.966Z,10.93
2022-10-08T07:21:30.310Z,10.75
2022-10-08T07:24:01.378Z,7.80
2022-10-08T07:26:34.713Z,9.82
2022-10-08T07:31:41.429Z,11.77
2022-10-08T07:34:13.163Z,8.27
2022-10-08T07:36:41.930Z,9.10
2022-10-08T07:39:15.994Z,7.63
2022-10-08T07:41:43.806Z,6.93
2022-10-08T07:44:12.899Z,4.43
2022-10-08T07:46:47.002Z,9.25
2022-10-08T07:49:16.782Z,11.13
2022-10-08T07:51:45.093Z,13.07
2022-10-08T07:54:18.547Z,7.40
2022-10-08T07:56:47.002Z,9.85
2022-10-08T07:59:15.101Z,11.20
2022-10-08T08:01:43.942Z,6.53
2022-10-08T08:04:12.527Z,11.10
2022-10-08T08:06:45.167Z,5.85
2022-10-08T08:09:14.453Z,9.77
2022-10-08T08:11:42.977Z,10.40
2022-10-08T08:14:11.139Z,12.30
2022-10-08T08:16:39.707Z,5.25
2022-10-08T08:19:08.240Z,7.88
2022-10-08T08:21:38.595Z,7.43
2022-10-08T08:24:14.044Z,6.63
2022-10-08T08:26:43.416Z,4.63
2022-10-08T08:29:18.961Z,9.68
2022-10-08T08:31:49.490Z,8.15
2022-10-08T08:34:24.441Z,9.02
2022-10-08T08:36:54.007Z,5.15
2022-10-08T08:39:28.002Z,7.20
2022-10-08T08:42:39.288Z,10.20
2022-10-08T08:45:45.773Z,10.25
2022-10-08T08:48:23.085Z,8.63
2022-10-08T08:50:53.636Z,5.28
2022-10-08T08:53:22.738Z,10.45
2022-10-08T08:55:55.565Z,9.50
2022-10-08T08:58:58.876Z,7.13
2022-10-08T09:01:42.469Z,6.63
2022-10-08T09:04:33.583Z,9.85
2022-10-08T09:07:08.571Z,7.32
2022-10-08T09:09:41.061Z,8.18
2022-10-08T09:12:38.079Z,9.60
2022-10-08T09:15:19.976Z,8.60
2022-10-08T09:17:52.892Z,7.43
2022-10-08T09:20:25.645Z,8.27
2022-10-08T09:22:57.095Z,8.60
2022-10-08T09:25:31.769Z,9.70
2022-10-08T09:28:06.324Z,7.82
2022-10-08T09:30:45.410Z,7.00
2022-10-08T09:33:24.335Z,5.97
2022-10-08T09:35:54.096Z,6.90
2022-10-08T09:38:49.335Z,8.05
2022-10-08T09:41:19.563Z,9.00
2022-10-08T09:44:18.764Z,7.30
2022-10-08T09:46:47.776Z,11.15
2022-10-08T09:49:31.512Z,10.50
2022-10-08T09:52:21.723Z,10.43
2022-10-08T09:54:59.188Z,6.03
2022-10-08T09:57:28.674Z,9.23
2022-10-08T10:00:05.963Z,8.27
2022-10-08T10:02:38.675Z,5.30
2022-10-08T10:05:21.556Z,7.97
2022-10-08T10:07:49.386Z,9.25
2022-10-08T10:10:48.636Z,5.40
2022-10-08T10:13:37.713Z,8.40
2022-10-08T10:16:32.631Z,6.22
2022-10-08T10:19:25.869Z,4.20
2022-10-08T10:22:15.154Z,6.10
2022-10-08T10:25:48.767Z,8.68
2022-10-08T10:28:50.915Z,5.45
2022-10-08T10:32:21.062Z,8.00
2022-10-08T10:35:21.067Z,11.07
2022-10-08T10:38:13.341Z,4.95
2022-10-08T10:41:04.133Z,7.00
2022-10-08T10:44:00.712Z,8.63
2022-10-08T10:46:34.328Z,5.97
2022-10-08T10:51:49.904Z,8.77
2022-10-08T10:55:10.349Z,8.48
2022-10-08T10:58:30.049Z,7.57
2022-10-08T11:01:33.584Z,8.82
2022-10-08T11:04:20.199Z,10.23
2022-10-08T11:07:28.147Z,7.88
2022-10-08T11:10:22.581Z,5.13
2022-10-08T11:13:05.143Z,4.75
2022-10-08T11:15:52.572Z,5.55
2022-10-08T11:19:03.102Z,6.22
2022-10-08T11:21:46.506Z,7.75
2022-10-08T11:24:51.530Z,7.28
2022-10-08T11:27:52.366Z,7.45
2022-10-08T11:30:50.880Z,7.25
2022-10-08T11:33:19.554Z,5.05
2022-10-08T11:36:40.774Z,5.45
2022-10-08T11:39:21.196Z,5.95
2022-10-08T11:43:03.398Z,6.15
2022-10-08T11:45:40.250Z,6.15
2022-10-08T11:48:34.133Z,6.47
2022-10-08T11:51:19.819Z,3.25
2022-10-08T11:54:16.975Z,5.15
2022-10-08T11:56:49.602Z,5.85
2022-10-08T11:59:58.379Z,6.68
2022-10-08T12:02:39.118Z,6.70
2022-10-08T12:05:22.208Z,4.10
2022-10-08T12:07:56.949Z,5.17
2022-10-08T12:10:37.510Z,5.40
2022-10-08T12:13:27.687Z,5.72
2022-10-08T12:15:56.682Z,5.40
2022-10-08T12:18:29.319Z,4.80
2022-10-08T12:21:21.698Z,4.00
2022-10-08T12:23:49.699Z,3.63
2022-10-08T12:26:17.513Z,3.63
2022-10-08T12:28:51.519Z,3.22
2022-10-08T12:31:40.107Z,4.28
2022-10-08T12:34:19.762Z,5.00
2022-10-08T12:37:06.487Z,3.67
2022-10-08T12:39:47.292Z,5.07
2022-10-08T12:42:23.078Z,6.78
2022-10-08T12:45:29.224Z,5.35
2022-10-08T12:48:12.174Z,3.30
2022-10-08T12:50:49.617Z,3.43
2022-10-08T12:53:18.738Z,3.20
2022-10-08T12:55:55.238Z,4.35
2022-10-08T12:58:29.230Z,7.38
2022-10-08T13:01:04.354Z,4.07
2022-10-08T13:03:32.514Z,4.78
2022-10-08T13:06:29.369Z,6.97
2022-10-08T13:09:00.951Z,6.75
2022-10-08T13:11:29.078Z,3.80
2022-10-08T13:13:56.885Z,6.97
2022-10-08T13:16:26.963Z,2.53
2022-10-08T13:18:58.789Z,8.63
2022-10-08T13:21:34.302Z,6.60
2022-10-08T13:24:12.163Z,3.88
2022-10-08T13:26:49.793Z,4.50
2022-10-08T13:29:37.981Z,4.97
2022-10-08T13:32:14.495Z,7.13
2022-10-08T13:35:00.198Z,8.63
2022-10-08T13:37:37.742Z,3.03
2022-10-08T13:40:11.377Z,4.88
2022-10-08T13:45:28.904Z,5.63
2022-10-08T13:47:57.389Z,4.47
2022-10-08T13:50:25.414Z,3.38
2022-10-08T13:52:57.281Z,2.95
2022-10-08T13:55:36.669Z,2.47
2022-10-08T13:58:07.436Z,2.42
2022-10-08T14:00:39.887Z,3.17
2022-10-08T14:03:08.848Z,3.05
2022-10-08T14:05:40.572Z,4.70
2022-10-08T14:08:23.386Z,2.50
2022-10-08T14:10:57.572Z,4.10
2022-10-08T14:13:26.075Z,2.47
2022-10-08T14:15:54.313Z,1.83
2022-10-08T14:18:22.560Z,3.65
2022-10-08T14:20:51.973Z,2.70
2022-10-08T14:23:22.204Z,4.15
2022-10-08T14:25:51.530Z,1.90
2022-10-08T14:28:19.521Z,5.20
2022-10-08T14:30:47.384Z,4.63
2022-10-08T14:33:15.147Z,3.15
2022-10-08T14:35:43.077Z,2.75
2022-10-08T14:38:10.929Z,3.22
2022-10-08T14:40:39.090Z,3.00
2022-10-08T14:43:06.851Z,3.92
2022-10-08T14:45:34.674Z,3.47
2022-10-08T14:48:02.706Z,4.07
2022-10-08T14:50:30.532Z,5.38
2022-10-08T14:52:58.319Z,2.92
2022-10-08T14:55:26.455Z,2.10
2022-10-08T14:57:54.251Z,3.13
2022-10-08T15:00:22.081Z,2.05
2022-10-08T15:02:50.212Z,2.00
2022-10-08T15:05:18.240Z,1.83
2022-10-08T15:07:46.361Z,3.15
2022-10-08T15:10:14.584Z,2.65
2022-10-08T15:12:42.339Z,3.30
2022-10-08T15:15:10.600Z,3.33
2022-10-08T15:17:38.418Z,4.00
2022-10-08T15:20:07.037Z,3.13
2022-10-08T15:22:34.885Z,6.22
2022-10-08T15:25:02.758Z,4.50
2022-10-08T15:27:30.624Z,3.80
2022-10-08T15:29:58.408Z,4.13
2022-10-08T15:32:30.245Z,5.93
2022-10-08T15:34:58.591Z,2.92
2022-10-08T15:37:26.399Z,6.00
2022-10-08T15:39:54.174Z,4.45
2022-10-08T15:42:22.367Z,3.20
2022-10-08T15:44:50.678Z,3.53
2022-10-08T15:47:18.462Z,6.30
2022-10-08T15:49:46.346Z,3.55
2022-10-08T15:52:20.983Z,3.20
2022-10-08T15:54:48.871Z,8.40
2022-10-08T15:57:18.897Z,2.42
2022-10-08T15:59:47.112Z,5.97
2022-10-08T16:02:17.828Z,4.97
2022-10-08T16:04:47.905Z,3.92
2022-10-08T16:07:17.182Z,6.82
2022-10-08T16:09:45.180Z,4.72
2022-10-08T16:12:13.733Z,7.78
2022-10-08T16:14:41.605Z,5.65
2022-10-08T16:17:10.074Z,5.82
2022-10-08T16:19:38.782Z,7.45
2022-10-08T16:22:08.594Z,3.33
2022-10-08T16:24:36.748Z,6.30
2022-10-08T16:27:04.773Z,5.80
2022-10-08T16:29:32.682Z,5.60
2022-10-08T16:32:00.549Z,6.50
2022-10-08T16:34:28.760Z,16.83
2022-10-08T16:36:59.322Z,11.82
2022-10-08T16:39:27.880Z,24.48
2022-10-08T16:41:55.722Z,18.85
2022-10-08T16:44:23.583Z,17.55
2022-10-08T16:46:52.574Z,24.20
2022-10-08T16:49:29.167Z,23.23
2022-10-08T16:52:01.324Z,27.52
2022-10-08T16:54:29.477Z,16.65
2022-10-08T16:56:58.225Z,23.60
2022-10-08T16:59:28.896Z,15.65
2022-10-08T17:01:59.208Z,11.30
2022-10-08T17:04:28.935Z,12.05
2022-10-08T17:06:56.837Z,14.85
2022-10-08T17:09:24.648Z,16.42
2022-10-08T17:11:52.655Z,13.10
2022-10-08T17:14:20.501Z,9.98
2022-10-08T17:16:49.840Z,8.20
2022-10-08T17:19:17.942Z,6.90
2022-10-08T17:21:46.013Z,8.93
2022-10-08T17:24:14.060Z,11.40
2022-10-08T17:26:42.257Z,7.60
2022-10-08T17:29:12.871Z,7.40
2022-10-08T17:31:42.355Z,7.10
2022-10-08T17:34:11.814Z,6.13
2022-10-08T17:36:43.987Z,6.63
2022-10-08T17:39:14.284Z,6.70
2022-10-08T17:41:43.850Z,6.45
2022-10-08T17:44:12.211Z,3.78
2022-10-08T17:46:45.447Z,6.45
2022-10-08T17:49:16.714Z,3.85
2022-10-08T17:51:45.790Z,6.45
2022-10-08T17:54:20.472Z,6.03
2022-10-08T17:56:49.215Z,11.02
2022-10-08T17:59:20.135Z,6.18
2022-10-08T18:01:48.523Z,5.18
2022-10-08T18:04:18.999Z,5.47
2022-10-08T18:06:48.097Z,9.23
2022-10-08T18:09:21.104Z,8.95
2022-10-08T18:11:53.230Z,6.43
2022-10-08T18:14:22.339Z,7.55
2022-10-08T18:16:50.274Z,10.90
2022-10-08T18:19:19.027Z,10.40
2022-10-08T18:21:46.897Z,6.53
2022-10-08T18:24:15.807Z,6.18
2022-10-08T18:26:44.169Z,7.60
2022-10-08T18:29:14.160Z,6.68
2022-10-08T18:31:44.443Z,8.10
2022-10-08T18:34:17.004Z,4.88
2022-10-08T18:36:46.043Z,6.57
2022-10-08T18:39:18.067Z,7.60
2022-10-08T18:41:49.303Z,6.95
2022-10-08T18:44:23.849Z,5.15
2022-10-08T18:46:52.839Z,4.85
2022-10-08T18:49:30.422Z,6.88
2022-10-08T18:51:59.463Z,5.47
2022-10-08T18:54:27.312Z,7.10
2022-10-08T18:56:56.816Z,6.88
2022-10-08T18:59:24.669Z,5.68
2022-10-08T19:01:55.651Z,9.57
2022-10-08T19:06:54.212Z,9.38
2022-10-08T19:09:22.320Z,4.95
2022-10-08T19:11:53.417Z,5.10
2022-10-08T19:14:23.185Z,6.28
2022-10-08T19:16:51.969Z,6.75
2022-10-08T19:19:23.699Z,7.55
2022-10-08T19:21:54.135Z,5.78
2022-10-08T19:24:24.830Z,9.27
2022-10-08T19:26:54.867Z,9.75
2022-10-08T19:29:29.505Z,5.50
2022-10-08T19:31:58.095Z,6.07
2022-10-08T19:34:27.631Z,4.70
2022-10-08T19:36:55.563Z,6.63
2022-10-08T19:39:27.818Z,8.27
2022-10-08T19:41:55.617Z,5.53
2022-10-08T19:44:24.069Z,4.63
2022-10-08T19:46:52.407Z,6.88
2022-10-08T19:49:21.554Z,5.03
2022-10-08T19:51:49.491Z,8.88
2022-10-08T19:54:18.307Z,9.05
2022-10-08T19:56:46.332Z,7.30
2022-10-08T19:59:14.652Z,7.53
2022-10-08T20:01:43.558Z,11.48
2022-10-08T20:04:12.180Z,9.15
2022-10-08T20:06:41.985Z,9.52
2022-10-08T20:09:12.415Z,6.85
2022-10-08T20:11:42.580Z,6.65
2022-10-08T20:14:11.480Z,6.85
2022-10-08T20:16:41.797Z,8.93
2022-10-08T20:19:21.040Z,9.50
2022-10-08T20:21:50.475Z,6.22
2022-10-08T20:24:21.166Z,6.72
2022-10-08T20:26:49.734Z,9.20
2022-10-08T20:29:25.151Z,10.35
2022-10-08T20:31:55.780Z,8.18
2022-10-08T20:34:28.716Z,7.90
2022-10-08T20:36:57.999Z,8.23
2022-10-08T20:39:25.799Z,8.90
2022-10-08T20:41:53.841Z,8.15
2022-10-08T20:44:21.789Z,7.90
2022-10-08T20:46:51.247Z,8.82
2022-10-08T20:49:19.895Z,6.32
2022-10-08T20:51:47.962Z,5.10
2022-10-08T20:54:17.817Z,6.22
2022-10-08T20:56:46.486Z,8.68
2022-10-08T20:59:18.617Z,8.27
2022-10-08T21:01:49.175Z,8.85
2022-10-08T21:04:17.694Z,11.55
2022-10-08T21:06:49.617Z,9.50
2022-10-08T21:09:20.774Z,6.93
2022-10-08T21:11:48.746Z,6.57
2022-10-08T21:14:22.637Z,5.78
2022-10-08T21:16:50.575Z,4.88
2022-10-08T21:19:22.148Z,6.47
2022-10-08T21:21:50.319Z,5.47
2022-10-08T21:24:18.377Z,5.05
2022-10-08T21:26:46.525Z,4.15
2022-10-08T21:29:15.164Z,6.38
2022-10-08T21:31:43.442Z,5.25
2022-10-08T21:34:13.115Z,7.80
2022-10-08T21:36:41.964Z,4.93
2022-10-08T21:39:16.824Z,8.10
2022-10-08T21:41:45.553Z,7.57
2022-10-08T21:44:14.007Z,5.72
2022-10-08T21:46:42.847Z,7.15
2022-10-08T21:49:22.676Z,6.20
2022-10-08T21:51:50.468Z,3.95
2022-10-08T21:54:18.712Z,6.95
2022-10-08T21:56:46.553Z,4.15
2022-10-08T21:59:16.251Z,5.63
2022-10-08T22:01:47.848Z,7.60
2022-10-08T22:04:24.949Z,6.22
2022-10-08T22:06:57.765Z,5.40
2022-10-08T22:09:31.354Z,5.25
2022-10-08T22:12:00.747Z,6.35
2022-10-08T22:14:29.459Z,6.45
2022-10-08T22:16:57.367Z,9.57
2022-10-08T22:19:25.229Z,6.78
2022-10-08T22:21:53.106Z,4.75
2022-10-08T22:24:20.999Z,5.57
2022-10-08T22:26:49.007Z,4.75
2022-10-08T22:29:17.113Z,5.93
2022-10-08T22:31:45.534Z,8.18
2022-10-08T22:34:13.673Z,5.20
2022-10-08T22:36:44.750Z,8.73
2022-10-08T22:39:13.201Z,4.70
2022-10-08T22:41:41.044Z,3.72
2022-10-08T22:44:08.861Z,7.90
2022-10-08T22:46:39.479Z,5.95
2022-10-08T22:49:10.622Z,6.07
2022-10-08T22:51:38.959Z,4.83
2022-10-08T22:54:07.058Z,5.35
2022-10-08T22:56:35.190Z,5.47
2022-10-08T22:59:03.120Z,6.23
2022-10-08T23:01:32.028Z,6.97
2022-10-08T23:04:00.009Z,5.57
2022-10-08T23:06:36.889Z,6.50
2022-10-08T23:09:10.844Z,7.07
2022-10-08T23:11:39.197Z,6.43
2022-10-08T23:14:07.031Z,6.53
2022-10-08T23:16:35.239Z,7.63
2022-10-08T23:19:10.255Z,5.93
2022-10-08T23:21:38.758Z,6.83
2022-10-08T23:24:06.928Z,7.38
2022-10-08T23:26:36.287Z,6.60
2022-10-08T23:29:05.050Z,6.70
2022-10-08T23:31:36.592Z,8.53
2022-10-08T23:34:05.852Z,7.80
2022-10-08T23:36:38.282Z,7.20
2022-10-08T23:39:07.441Z,7.05
2022-10-08T23:41:37.127Z,7.07
2022-10-08T23:44:05.597Z,9.73
2022-10-08T23:46:33.739Z,6.87
2022-10-08T23:49:01.887Z,7.93
2022-10-08T23:51:32.095Z,8.43
2022-10-08T23:54:01.474Z,6.13
2022-10-08T23:56:30.192Z,11.73
2022-10-08T23:58:58.799Z,7.60
